createdAt,value
2018-10-16T00:00:48.412Z,95473.52
2018-10-16T00:03:17.225Z,95470.66
2018-10-16T00:05:45.915Z,95473.23
2018-10-16T00:08:14.908Z,95478.50
2018-10-16T00:10:45.999Z,95470.62
2018-10-16T00:13:15.082Z,95472.19
2018-10-16T00:15:44.155Z,95464.70
2018-10-16T00:18:13.327Z,95471.05
2018-10-16T00:20:42.717Z,95472.87
2018-10-16T00:23:12.012Z,95477.02
2018-10-16T00:25:40.908Z,95476.27
2018-10-16T00:28:09.989Z,95484.39
2018-10-16T00:30:38.718Z,95482.81
2018-10-16T00:33:07.471Z,95470.83
2018-10-16T00:35:36.299Z,95473.20
2018-10-16T00:38:05.152Z,95476.83
2018-10-16T00:40:33.831Z,95476.79
2018-10-16T00:43:03.055Z,95479.47
2018-10-16T00:45:31.869Z,95472.80
2018-10-16T00:48:00.719Z,95477.64
2018-10-16T00:50:29.856Z,95482.30
2018-10-16T00:52:59.102Z,95416.22
2018-10-16T00:55:27.905Z,95472.50
2018-10-16T00:57:56.704Z,95477.64
2018-10-16T01:00:25.471Z,95473.81
2018-10-16T01:02:54.458Z,95468.81
2018-10-16T01:05:23.200Z,95464.18
2018-10-16T01:07:51.889Z,95464.61
2018-10-16T01:10:20.862Z,95459.10
2018-10-16T01:12:49.637Z,95460.48
2018-10-16T01:15:18.475Z,95455.10
2018-10-16T01:17:47.456Z,95459.48
2018-10-16T01:20:16.402Z,95462.20
2018-10-16T01:22:45.299Z,95460.88
2018-10-16T01:25:14.535Z,95453.85
2018-10-16T01:27:43.429Z,95454.16
2018-10-16T01:30:12.123Z,95456.53
2018-10-16T01:32:41.029Z,95447.78
2018-10-16T01:35:11.228Z,95451.33
2018-10-16T01:37:40.627Z,95451.95
2018-10-16T01:40:11.795Z,95451.20
2018-10-16T01:42:40.738Z,95448.09
2018-10-16T01:45:10.182Z,95448.19
2018-10-16T01:47:39.410Z,95449.61
2018-10-16T01:50:08.672Z,95449.33
2018-10-16T01:52:37.775Z,95446.19
2018-10-16T01:55:07.042Z,95443.16
2018-10-16T01:57:35.823Z,95438.08
2018-10-16T02:00:04.647Z,95441.71
2018-10-16T02:02:33.753Z,95450.58
2018-10-16T02:05:02.387Z,95446.64
2018-10-16T02:07:31.493Z,95453.36
2018-10-16T02:10:01.351Z,95454.36
2018-10-16T02:12:30.103Z,95455.20
2018-10-16T02:14:58.891Z,95451.94
2018-10-16T02:17:27.711Z,95457.33
2018-10-16T02:19:56.474Z,95458.54
2018-10-16T02:22:25.138Z,95459.52
2018-10-16T02:24:54.292Z,95454.66
2018-10-16T02:27:23.132Z,95456.31
2018-10-16T02:29:51.806Z,95452.89
2018-10-16T02:32:20.758Z,95457.14
2018-10-16T02:34:49.394Z,95453.56
2018-10-16T02:37:18.299Z,95453.08
2018-10-16T02:39:47.098Z,95450.33
2018-10-16T02:42:16.170Z,95448.94
2018-10-16T02:44:44.743Z,95450.42
2018-10-16T02:47:13.563Z,95453.02
2018-10-16T02:49:42.295Z,95458.28
2018-10-16T02:52:10.962Z,95450.45
2018-10-16T02:54:40.161Z,95455.33
2018-10-16T02:57:09.348Z,95451.05
2018-10-16T02:59:38.026Z,95449.96
2018-10-16T03:02:07.210Z,95452.26
2018-10-16T03:04:35.843Z,95457.95
2018-10-16T03:07:04.793Z,95454.14
2018-10-16T03:09:33.854Z,95457.58
2018-10-16T03:12:02.688Z,95454.80
2018-10-16T03:14:31.506Z,95453.29
2018-10-16T03:17:00.466Z,95454.00
2018-10-16T03:19:29.166Z,95452.41
2018-10-16T03:21:58.262Z,95453.22
2018-10-16T03:24:27.468Z,95455.00
2018-10-16T03:26:56.169Z,95459.57
2018-10-16T03:29:24.748Z,95454.28
2018-10-16T03:31:53.730Z,95447.28
2018-10-16T03:34:22.330Z,95452.68
2018-10-16T03:36:51.428Z,95459.78
2018-10-16T03:39:20.419Z,95456.22
2018-10-16T03:41:49.264Z,95462.41
2018-10-16T03:44:18.167Z,95460.61
2018-10-16T03:46:47.162Z,95466.42
2018-10-16T03:49:15.967Z,95457.33
2018-10-16T03:51:44.932Z,95453.61
2018-10-16T03:54:13.960Z,95455.02
2018-10-16T03:56:42.684Z,95461.40
2018-10-16T03:59:11.720Z,95459.52
2018-10-16T04:01:40.431Z,95459.91
2018-10-16T04:04:09.967Z,95453.64
2018-10-16T04:06:38.799Z,95457.55
2018-10-16T04:09:08.006Z,95454.73
2018-10-16T04:11:37.109Z,95456.13
2018-10-16T04:14:06.125Z,95460.30
2018-10-16T04:16:34.884Z,95464.27
2018-10-16T04:19:03.679Z,95467.77
2018-10-16T04:21:38.502Z,95466.31
2018-10-16T04:24:07.681Z,95466.48
2018-10-16T04:26:37.134Z,95465.06
2018-10-16T04:29:06.488Z,95464.81
2018-10-16T04:31:35.098Z,95467.28
2018-10-16T04:34:04.272Z,95465.57
2018-10-16T04:36:33.227Z,95463.42
2018-10-16T04:39:02.307Z,95465.03
2018-10-16T04:41:31.540Z,95457.30
2018-10-16T04:44:00.578Z,95459.30
2018-10-16T04:46:29.711Z,95460.34
2018-10-16T04:48:59.384Z,95459.73
2018-10-16T04:51:28.712Z,95464.23
2018-10-16T04:53:57.479Z,95462.66
2018-10-16T04:56:26.615Z,95464.34
2018-10-16T04:58:55.340Z,95462.44
2018-10-16T05:01:24.047Z,95462.52
2018-10-16T05:03:52.955Z,95474.00
2018-10-16T05:06:22.076Z,95469.12
2018-10-16T05:08:51.135Z,95468.55
2018-10-16T05:11:19.968Z,95470.05
2018-10-16T05:13:49.019Z,95473.33
2018-10-16T05:16:18.006Z,95477.30
2018-10-16T05:18:46.735Z,95472.70
2018-10-16T05:21:15.385Z,95470.81
2018-10-16T05:23:44.507Z,95464.98
2018-10-16T05:26:13.437Z,95474.13
2018-10-16T05:28:42.212Z,95465.89
2018-10-16T05:31:10.992Z,95464.30
2018-10-16T05:33:40.178Z,95471.64
2018-10-16T05:36:09.314Z,95473.09
2018-10-16T05:38:38.176Z,95465.14
2018-10-16T05:41:07.119Z,95470.48
2018-10-16T05:43:36.162Z,95472.86
2018-10-16T05:46:05.119Z,95476.56
2018-10-16T05:48:33.894Z,95476.51
2018-10-16T05:51:02.822Z,95476.69
2018-10-16T05:53:31.794Z,95475.14
2018-10-16T05:56:05.881Z,95476.81
2018-10-16T05:58:35.139Z,95474.47
2018-10-16T06:01:03.902Z,95482.50
2018-10-16T06:03:32.648Z,95479.77
2018-10-16T06:06:01.616Z,95481.00
2018-10-16T06:08:30.217Z,95488.39
2018-10-16T06:10:59.040Z,95484.73
2018-10-16T06:13:27.939Z,95491.45
2018-10-16T06:15:57.081Z,95491.72
2018-10-16T06:18:25.919Z,95495.31
2018-10-16T06:20:54.679Z,95488.91
2018-10-16T06:23:23.961Z,95493.47
2018-10-16T06:25:53.023Z,95491.67
2018-10-16T06:28:24.080Z,95487.09
2018-10-16T06:30:52.835Z,95493.67
2018-10-16T06:33:24.347Z,95488.53
2018-10-16T06:35:53.037Z,95488.20
2018-10-16T06:38:21.776Z,95490.66
2018-10-16T06:40:50.909Z,95491.55
2018-10-16T06:43:19.650Z,95494.55
2018-10-16T06:45:48.326Z,95491.50
2018-10-16T06:48:17.620Z,95493.66
2018-10-16T06:50:46.407Z,95496.79
2018-10-16T06:53:15.254Z,95492.97
2018-10-16T06:55:44.130Z,95503.31
2018-10-16T06:58:12.890Z,95502.50
2018-10-16T07:00:41.595Z,95502.00
2018-10-16T07:03:10.350Z,95497.80
2018-10-16T07:05:39.105Z,95489.39
2018-10-16T07:08:08.226Z,95501.55
2018-10-16T07:10:37.147Z,95500.72
2018-10-16T07:13:06.039Z,95499.59
2018-10-16T07:15:35.015Z,95500.24
2018-10-16T07:18:04.003Z,95499.80
2018-10-16T07:20:32.726Z,95497.45
2018-10-16T07:23:01.776Z,95496.95
2018-10-16T07:25:30.510Z,95502.38
2018-10-16T07:27:59.310Z,95496.65
2018-10-16T07:30:28.104Z,95496.53
2018-10-16T07:32:57.002Z,95492.80
2018-10-16T07:35:26.085Z,95491.36
2018-10-16T07:37:55.181Z,95494.56
2018-10-16T07:40:23.946Z,95498.25
2018-10-16T07:42:52.707Z,95498.30
2018-10-16T07:45:21.852Z,95495.76
2018-10-16T07:47:50.522Z,95497.97
2018-10-16T07:50:19.368Z,95494.81
2018-10-16T07:52:48.223Z,95488.34
2018-10-16T07:55:17.438Z,95489.50
2018-10-16T07:57:46.235Z,95492.81
2018-10-16T08:00:14.963Z,95485.25
2018-10-16T08:02:44.504Z,95482.17
2018-10-16T08:05:13.752Z,95482.45
2018-10-16T08:07:42.800Z,95489.34
2018-10-16T08:10:13.640Z,95488.27
2018-10-16T08:12:43.287Z,95485.11
2018-10-16T08:15:12.587Z,95486.70
2018-10-16T08:17:42.051Z,95475.47
2018-10-16T08:20:10.945Z,95479.41
2018-10-16T08:22:39.936Z,95484.24
2018-10-16T08:25:09.068Z,95481.39
2018-10-16T08:27:37.682Z,95483.77
2018-10-16T08:30:07.893Z,95481.15
2018-10-16T08:32:36.667Z,95475.61
2018-10-16T08:35:05.675Z,95473.00
2018-10-16T08:38:43.410Z,95476.00
2018-10-16T08:41:14.210Z,95470.70
2018-10-16T08:43:54.217Z,95468.88
2018-10-16T08:46:34.040Z,95475.23
2018-10-16T08:49:13.865Z,95469.42
2018-10-16T08:51:58.818Z,95471.55
2018-10-16T08:54:27.511Z,95465.72
2018-10-16T08:56:56.249Z,95469.41
2018-10-16T08:59:24.994Z,95464.89
2018-10-16T09:01:53.798Z,95467.81
2018-10-16T09:04:22.454Z,95466.48
2018-10-16T09:06:51.750Z,95467.56
2018-10-16T09:09:20.603Z,95465.86
2018-10-16T09:11:49.951Z,95465.80
2018-10-16T09:14:19.006Z,95459.19
2018-10-16T09:16:48.020Z,95452.64
2018-10-16T09:19:16.879Z,95453.91
2018-10-16T09:21:46.041Z,95448.75
2018-10-16T09:24:14.990Z,95449.31
2018-10-16T09:26:43.723Z,95441.91
2018-10-16T09:29:12.666Z,95442.37
2018-10-16T09:31:41.554Z,95441.38
2018-10-16T09:34:10.443Z,95438.23
2018-10-16T09:36:39.430Z,95424.75
2018-10-16T09:39:10.939Z,95424.75
2018-10-16T09:41:40.056Z,95422.68
2018-10-16T09:44:09.307Z,95421.31
2018-10-16T09:46:39.185Z,95420.50
2018-10-16T09:49:08.135Z,95414.40
2018-10-16T09:51:36.993Z,95411.48
2018-10-16T09:54:06.029Z,95398.55
2018-10-16T09:56:35.201Z,95397.87
2018-10-16T09:59:03.974Z,95398.61
2018-10-16T10:01:37.922Z,95389.44
2018-10-16T10:04:06.936Z,95387.01
2018-10-16T10:06:35.869Z,95384.37
2018-10-16T10:09:07.231Z,95391.75
2018-10-16T10:11:36.208Z,95381.66
2018-10-16T10:14:05.253Z,95382.56
2018-10-16T10:16:34.192Z,95380.92
2018-10-16T10:19:03.208Z,95381.55
2018-10-16T10:21:32.020Z,95363.64
2018-10-16T10:24:00.746Z,95373.71
2018-10-16T10:26:29.523Z,95372.38
2018-10-16T10:28:58.575Z,95368.75
2018-10-16T10:31:28.297Z,95361.14
2018-10-16T10:33:57.377Z,95362.33
2018-10-16T10:36:26.431Z,95353.70
2018-10-16T10:38:55.216Z,95348.27
2018-10-16T10:41:24.343Z,95355.66
2018-10-16T10:43:53.476Z,95351.92
2018-10-16T10:46:22.172Z,95348.61
2018-10-16T10:48:50.888Z,95345.00
2018-10-16T10:51:20.326Z,95339.48
2018-10-16T10:53:48.859Z,95343.59
2018-10-16T10:56:17.575Z,95343.74
2018-10-16T10:58:46.276Z,95340.28
2018-10-16T11:01:15.274Z,95340.45
2018-10-16T11:03:44.943Z,95336.95
2018-10-16T11:06:14.080Z,95336.45
2018-10-16T11:08:43.072Z,95340.75
2018-10-16T11:11:12.024Z,95338.94
2018-10-16T11:13:41.002Z,95327.86
2018-10-16T11:16:09.758Z,95330.80
2018-10-16T11:18:38.882Z,95330.50
2018-10-16T11:21:08.319Z,95331.83
2018-10-16T11:23:37.132Z,95329.37
2018-10-16T11:26:06.064Z,95327.45
2018-10-16T11:28:34.895Z,95317.69
2018-10-16T11:31:04.030Z,95327.97
2018-10-16T11:33:32.853Z,95324.21
2018-10-16T11:36:01.926Z,95323.16
2018-10-16T11:38:30.991Z,95328.44
2018-10-16T11:40:59.977Z,95320.67
2018-10-16T11:43:29.116Z,95317.64
2018-10-16T11:45:58.371Z,95321.28
2018-10-16T11:48:27.266Z,95314.08
2018-10-16T11:50:56.191Z,95309.73
2018-10-16T11:53:24.842Z,95299.16
2018-10-16T11:55:53.621Z,95297.09
2018-10-16T11:58:22.634Z,95306.84
2018-10-16T12:00:51.626Z,95302.68
2018-10-16T12:03:20.431Z,95294.41
2018-10-16T12:05:49.534Z,95294.37
2018-10-16T12:08:18.411Z,95292.34
2018-10-16T12:10:47.286Z,95292.63
2018-10-16T12:13:16.097Z,95287.48
2018-10-16T12:15:45.946Z,95281.35
2018-10-16T12:18:17.876Z,95283.16
2018-10-16T12:21:49.834Z,95281.25
2018-10-16T12:24:18.783Z,95277.09
2018-10-16T12:26:47.491Z,95282.14
2018-10-16T12:29:16.279Z,95273.63
2018-10-16T12:31:45.423Z,95275.75
2018-10-16T12:34:14.532Z,95281.91
2018-10-16T12:36:43.505Z,95281.92
2018-10-16T12:39:12.548Z,95278.55
2018-10-16T12:41:41.373Z,95281.54
2018-10-16T12:44:10.252Z,95281.01
2018-10-16T12:46:39.009Z,95274.07
2018-10-16T12:49:07.850Z,95277.54
2018-10-16T12:51:36.576Z,95280.69
2018-10-16T12:54:05.585Z,95281.47
2018-10-16T12:56:34.259Z,95281.95
2018-10-16T12:59:03.404Z,95281.03
2018-10-16T13:01:32.347Z,95271.31
2018-10-16T13:04:01.179Z,95276.14
2018-10-16T13:06:30.452Z,95274.66
2018-10-16T13:08:59.267Z,95272.25
2018-10-16T13:11:28.362Z,95268.98
2018-10-16T13:13:57.122Z,95271.98
2018-10-16T13:16:26.184Z,95272.77
2018-10-16T13:18:55.048Z,95272.35
2018-10-16T13:21:24.304Z,95267.13
2018-10-16T13:23:52.973Z,95272.38
2018-10-16T13:26:21.667Z,95269.95
2018-10-16T13:28:50.743Z,95266.52
2018-10-16T13:31:19.656Z,95268.13
2018-10-16T13:33:48.623Z,95263.59
2018-10-16T13:36:17.439Z,95220.84
2018-10-16T13:38:46.584Z,95261.83
2018-10-16T13:41:15.221Z,95257.56
2018-10-16T13:43:44.603Z,95262.59
2018-10-16T13:46:13.599Z,95259.71
2018-10-16T13:48:42.458Z,95264.05
2018-10-16T13:51:11.198Z,95265.61
2018-10-16T13:53:39.906Z,95258.50
2018-10-16T13:56:08.999Z,95266.41
2018-10-16T13:58:38.090Z,95265.56
2018-10-16T14:01:07.247Z,95252.20
2018-10-16T14:03:36.370Z,95249.62
2018-10-16T14:06:05.242Z,95250.61
2018-10-16T14:08:33.925Z,95257.00
2018-10-16T14:11:02.885Z,95256.73
2018-10-16T14:13:31.993Z,95263.83
2018-10-16T14:16:00.909Z,95264.86
2018-10-16T14:18:29.692Z,95268.27
2018-10-16T14:20:58.391Z,95259.51
2018-10-16T14:23:27.132Z,95263.64
2018-10-16T14:25:56.167Z,95261.44
2018-10-16T14:28:25.058Z,95261.32
2018-10-16T14:30:53.996Z,95270.95
2018-10-16T14:33:22.926Z,95269.17
2018-10-16T14:35:51.812Z,95269.95
2018-10-16T14:38:20.836Z,95263.58
2018-10-16T14:40:49.670Z,95273.42
2018-10-16T14:43:18.642Z,95270.88
2018-10-16T14:45:47.593Z,95274.59
2018-10-16T14:48:16.445Z,95277.55
2018-10-16T14:50:45.214Z,95278.97
2018-10-16T14:53:13.986Z,95284.05
2018-10-16T14:55:42.587Z,95282.17
2018-10-16T14:58:11.364Z,95288.38
2018-10-16T15:00:40.225Z,95287.59
2018-10-16T15:03:09.136Z,95289.25
2018-10-16T15:05:37.951Z,95293.38
2018-10-16T15:08:06.944Z,95300.18
2018-10-16T15:10:35.837Z,95297.13
2018-10-16T15:13:04.475Z,95302.00
2018-10-16T15:15:33.274Z,95306.51
2018-10-16T15:18:02.063Z,95308.17
2018-10-16T15:20:30.711Z,95309.89
2018-10-16T15:22:59.419Z,95322.11
2018-10-16T15:25:28.153Z,95329.45
2018-10-16T15:27:57.123Z,95324.85
2018-10-16T15:30:26.074Z,95326.11
2018-10-16T15:32:54.937Z,95331.61
2018-10-16T15:35:23.692Z,95329.59
2018-10-16T15:37:53.117Z,95335.86
2018-10-16T15:40:21.867Z,95334.92
2018-10-16T15:42:50.733Z,95334.75
2018-10-16T15:45:19.417Z,95342.81
2018-10-16T15:47:48.266Z,95343.01
2018-10-16T15:50:16.902Z,95347.66
2018-10-16T15:52:45.674Z,95348.81
2018-10-16T15:55:14.427Z,95348.19
2018-10-16T15:57:43.090Z,95346.63
2018-10-16T16:00:14.721Z,95346.50
2018-10-16T16:02:43.540Z,95346.20
2018-10-16T16:05:12.459Z,95352.16
2018-10-16T16:07:41.480Z,95358.34
2018-10-16T16:10:12.463Z,95354.25
2018-10-16T16:12:41.196Z,95357.80
2018-10-16T16:15:11.588Z,95361.02
2018-10-16T16:17:40.974Z,95360.61
2018-10-16T16:20:11.314Z,95369.10
2018-10-16T16:22:40.270Z,95375.73
2018-10-16T16:25:11.031Z,95377.91
2018-10-16T16:27:40.248Z,95380.06
2018-10-16T16:30:12.683Z,95381.42
2018-10-16T16:32:41.779Z,95382.75
2018-10-16T16:35:10.574Z,95378.55
2018-10-16T16:37:39.315Z,95375.40
2018-10-16T16:40:10.079Z,95379.91
2018-10-16T16:42:38.935Z,95374.91
2018-10-16T16:45:08.858Z,95369.91
2018-10-16T16:47:37.998Z,95378.63
2018-10-16T16:50:08.072Z,95375.72
2018-10-16T16:52:36.843Z,95377.06
2018-10-16T16:55:07.003Z,95380.41
2018-10-16T16:57:35.895Z,95385.08
2018-10-16T17:00:05.134Z,95384.25
2018-10-16T17:02:33.998Z,95386.28
2018-10-16T17:05:02.936Z,95387.78
2018-10-16T17:10:13.893Z,95384.82
2018-10-16T17:12:42.879Z,95385.84
2018-10-16T17:15:14.817Z,95389.89
2018-10-16T17:17:44.265Z,95393.12
2018-10-16T17:20:13.221Z,95395.95
2018-10-16T17:22:41.978Z,95390.92
2018-10-16T17:25:12.922Z,95389.63
2018-10-16T17:27:41.851Z,95391.80
2018-10-16T17:30:12.703Z,95387.61
2018-10-16T17:32:42.192Z,95391.11
2018-10-16T17:35:11.777Z,95397.95
2018-10-16T17:37:41.146Z,95387.03
2018-10-16T17:40:12.115Z,95389.39
2018-10-16T17:42:41.148Z,95388.52
2018-10-16T17:45:11.668Z,95391.27
2018-10-16T17:47:40.552Z,95394.83
2018-10-16T17:50:11.703Z,95391.13
2018-10-16T17:52:40.874Z,95391.13
2018-10-16T17:55:10.471Z,95393.25
2018-10-16T17:57:39.696Z,95396.59
2018-10-16T18:00:10.955Z,95394.41
2018-10-16T18:02:40.092Z,95396.14
2018-10-16T18:05:08.763Z,95400.73
2018-10-16T18:07:37.643Z,95407.80
2018-10-16T18:10:07.152Z,95402.32
2018-10-16T18:12:35.994Z,95412.03
2018-10-16T18:15:05.443Z,95406.48
2018-10-16T18:17:34.091Z,95309.14
2018-10-16T18:20:02.693Z,95409.07
2018-10-16T18:22:31.793Z,95410.75
2018-10-16T18:25:00.662Z,95418.47
2018-10-16T18:27:29.391Z,95422.34
2018-10-16T18:29:58.322Z,95417.11
2018-10-16T18:32:27.031Z,95420.44
2018-10-16T18:34:56.054Z,95424.94
2018-10-16T18:37:25.365Z,95427.78
2018-10-16T18:39:54.407Z,95422.86
2018-10-16T18:42:23.155Z,95433.00
2018-10-16T18:44:52.463Z,95426.44
2018-10-16T18:47:21.151Z,95428.69
2018-10-16T18:49:49.892Z,95425.84
2018-10-16T18:52:18.708Z,95426.83
2018-10-16T18:54:47.567Z,95432.80
2018-10-16T18:57:16.680Z,95438.11
2018-10-16T18:59:45.706Z,95434.00
2018-10-16T19:02:14.476Z,95441.64
2018-10-16T19:04:43.544Z,95448.14
2018-10-16T19:07:12.670Z,95440.56
2018-10-16T19:09:41.875Z,95443.23
2018-10-16T19:12:10.772Z,95434.30
2018-10-16T19:14:39.802Z,95440.11
2018-10-16T19:17:08.390Z,95435.76
2018-10-16T19:19:37.113Z,95439.23
2018-10-16T19:22:06.067Z,95439.16
2018-10-16T19:24:34.972Z,95444.20
2018-10-16T19:27:03.910Z,95447.60
2018-10-16T19:29:32.621Z,95451.37
2018-10-16T19:32:01.404Z,95452.33
2018-10-16T19:34:30.352Z,95447.91
2018-10-16T19:36:59.295Z,95449.59
2018-10-16T19:39:28.038Z,95444.73
2018-10-16T19:41:57.110Z,95443.09
2018-10-16T19:44:26.486Z,95445.91
2018-10-16T19:46:55.174Z,95446.31
2018-10-16T19:49:23.911Z,95443.51
2018-10-16T19:51:52.843Z,95445.92
2018-10-16T19:54:21.729Z,95444.75
2018-10-16T19:56:50.882Z,95445.03
2018-10-16T19:59:19.529Z,95450.84
2018-10-16T20:01:48.262Z,95445.22
2018-10-16T20:04:17.139Z,95449.97
2018-10-16T20:06:45.785Z,95446.08
2018-10-16T20:09:14.872Z,95450.80
2018-10-16T20:11:43.868Z,95449.88
2018-10-16T20:14:12.656Z,95453.18
2018-10-16T20:16:41.731Z,95442.59
2018-10-16T20:19:10.379Z,95447.58
2018-10-16T20:21:39.154Z,95451.86
2018-10-16T20:24:08.193Z,95450.27
2018-10-16T20:26:37.202Z,95454.85
2018-10-16T20:29:05.835Z,95456.80
2018-10-16T20:31:34.713Z,95452.32
2018-10-16T20:34:03.511Z,95452.45
2018-10-16T20:36:32.327Z,95455.33
2018-10-16T20:39:01.148Z,95453.28
2018-10-16T20:41:30.115Z,95454.31
2018-10-16T20:43:59.039Z,95460.75
2018-10-16T20:46:27.818Z,95456.41
2018-10-16T20:48:56.562Z,95448.72
2018-10-16T20:51:25.368Z,95447.36
2018-10-16T20:53:54.236Z,95452.77
2018-10-16T20:56:23.326Z,95449.44
2018-10-16T20:58:52.397Z,95455.33
2018-10-16T21:01:21.101Z,95448.56
2018-10-16T21:03:49.967Z,95455.41
2018-10-16T21:06:19.288Z,95443.59
2018-10-16T21:08:47.783Z,95443.25
2018-10-16T21:11:17.010Z,95438.31
2018-10-16T21:13:45.649Z,95445.78
2018-10-16T21:16:14.704Z,95438.25
2018-10-16T21:18:43.547Z,95442.02
2018-10-16T21:21:12.328Z,95437.02
2018-10-16T21:23:40.948Z,95440.84
2018-10-16T21:26:10.098Z,95442.45
2018-10-16T21:28:38.953Z,95445.05
2018-10-16T21:31:07.815Z,95440.61
2018-10-16T21:33:36.578Z,95446.98
2018-10-16T21:36:05.867Z,95443.97
2018-10-16T21:38:34.805Z,95438.47
2018-10-16T21:41:03.520Z,95442.52
2018-10-16T21:43:32.360Z,95441.00
2018-10-16T21:46:01.155Z,95426.85
2018-10-16T21:48:29.891Z,95432.52
2018-10-16T21:50:58.867Z,95429.47
2018-10-16T21:53:27.699Z,95436.36
2018-10-16T21:55:56.762Z,95437.79
2018-10-16T21:58:25.543Z,95435.80
2018-10-16T22:00:59.643Z,95432.60
2018-10-16T22:03:28.628Z,95433.41
2018-10-16T22:05:57.547Z,95428.84
2018-10-16T22:08:26.401Z,95430.10
2018-10-16T22:10:55.511Z,95432.00
2018-10-16T22:13:24.613Z,95430.41
2018-10-16T22:15:53.338Z,95422.73
2018-10-16T22:18:22.008Z,95421.92
2018-10-16T22:20:50.676Z,95418.17
2018-10-16T22:23:19.552Z,95421.51
2018-10-16T22:25:48.366Z,95416.70
2018-10-16T22:28:17.285Z,95418.47
2018-10-16T22:30:46.409Z,95417.77
2018-10-16T22:33:15.467Z,95410.29
2018-10-16T22:35:44.474Z,95412.44
2018-10-16T22:38:13.383Z,95415.84
2018-10-16T22:40:42.518Z,95416.48
2018-10-16T22:43:11.957Z,95416.25
2018-10-16T22:45:40.759Z,95417.63
2018-10-16T22:48:09.459Z,95421.42
2018-10-16T22:50:38.247Z,95417.77
2018-10-16T22:53:07.062Z,95413.41
2018-10-16T22:55:35.785Z,95418.36
2018-10-16T22:58:04.820Z,95409.54
2018-10-16T23:00:33.560Z,95411.98
2018-10-16T23:03:02.461Z,95412.14
2018-10-16T23:05:31.194Z,95413.24
2018-10-16T23:07:59.848Z,95411.69
2018-10-16T23:10:28.905Z,95406.41
2018-10-16T23:13:08.242Z,95412.42
2018-10-16T23:15:37.153Z,95409.27
2018-10-16T23:18:06.194Z,95405.37
2018-10-16T23:20:35.410Z,95410.28
2018-10-16T23:23:04.574Z,95404.71
2018-10-16T23:25:33.416Z,95411.91
2018-10-16T23:28:02.774Z,95406.84
2018-10-16T23:30:31.738Z,95401.48
2018-10-16T23:33:00.564Z,95414.95
2018-10-16T23:35:29.542Z,95410.08
2018-10-16T23:37:58.649Z,95408.84
2018-10-16T23:40:27.612Z,95413.72
2018-10-16T23:42:56.387Z,95406.25
2018-10-16T23:45:25.422Z,95402.81
2018-10-16T23:47:54.018Z,95406.27
2018-10-16T23:50:22.946Z,95405.44
2018-10-16T23:52:52.026Z,95400.00
2018-10-16T23:55:21.078Z,95401.96
2018-10-16T23:57:50.285Z,95402.63
